createdAt,value
2023-03-21T00:00:23.690Z,16.54
2023-03-21T00:01:22.885Z,16.46
2023-03-21T00:02:22.708Z,16.52
2023-03-21T00:03:22.653Z,16.55
2023-03-21T00:04:22.239Z,16.53
2023-03-21T00:05:22.796Z,16.40
2023-03-21T00:06:21.877Z,16.43
2023-03-21T00:07:22.268Z,16.53
2023-03-21T00:08:21.966Z,16.56
2023-03-21T00:09:22.720Z,16.55
2023-03-21T00:10:37.132Z,16.57
2023-03-21T00:11:21.803Z,16.59
2023-03-21T00:12:22.687Z,16.45
2023-03-21T00:13:22.280Z,16.43
2023-03-21T00:14:22.217Z,16.43
2023-03-21T00:15:24.959Z,16.39
2023-03-21T00:16:30.531Z,16.36
2023-03-21T00:17:20.494Z,16.35
2023-03-21T00:18:22.474Z,16.35
2023-03-21T00:19:22.515Z,16.36
2023-03-21T00:20:22.661Z,16.43
2023-03-21T00:21:46.553Z,16.47
2023-03-21T00:22:26.143Z,16.46
2023-03-21T00:23:22.513Z,16.46
2023-03-21T00:24:20.305Z,16.48
2023-03-21T00:26:22.883Z,16.27
2023-03-21T00:27:43.076Z,16.30
2023-03-21T00:28:22.480Z,16.27
2023-03-21T00:29:21.975Z,16.26
2023-03-21T00:30:23.283Z,16.27
2023-03-21T00:31:22.014Z,16.32
2023-03-21T00:32:22.671Z,16.32
2023-03-21T00:33:22.987Z,16.31
2023-03-21T00:34:37.077Z,16.32
2023-03-21T00:35:53.605Z,16.27
2023-03-21T00:36:30.778Z,16.21
2023-03-21T00:37:22.401Z,16.26
2023-03-21T00:38:22.235Z,16.21
2023-03-21T00:39:22.426Z,16.16
2023-03-21T00:40:27.932Z,16.26
2023-03-21T00:41:39.180Z,16.31
2023-03-21T00:42:22.697Z,16.36
2023-03-21T00:43:21.874Z,16.39
2023-03-21T00:44:22.433Z,16.40
2023-03-21T00:45:22.981Z,16.42
2023-03-21T00:46:25.129Z,16.45
2023-03-21T00:47:24.123Z,16.47
2023-03-21T00:48:22.566Z,16.46
2023-03-21T00:49:22.332Z,16.45
2023-03-21T00:50:22.214Z,16.47
2023-03-21T00:51:21.783Z,16.44
2023-03-21T00:52:34.403Z,16.42
2023-03-21T00:53:22.571Z,16.44
2023-03-21T00:54:22.547Z,16.5
2023-03-21T00:55:22.568Z,16.49
2023-03-21T00:56:22.762Z,16.54
2023-03-21T00:57:29.275Z,16.54
2023-03-21T00:58:22.236Z,16.50
2023-03-21T00:59:22.636Z,16.53
2023-03-21T01:00:24.255Z,16.51
2023-03-21T01:01:25.472Z,16.53
2023-03-21T01:02:22.262Z,16.55
2023-03-21T01:03:25.341Z,16.54
2023-03-21T01:04:22.250Z,16.55
2023-03-21T01:05:22.385Z,16.58
2023-03-21T01:06:22.116Z,16.61
2023-03-21T01:07:21.904Z,16.62
2023-03-21T01:08:28.051Z,16.66
2023-03-21T01:09:22.561Z,16.67
2023-03-21T01:10:22.575Z,16.67
2023-03-21T01:11:22.017Z,16.70
2023-03-21T01:12:22.667Z,16.69
2023-03-21T01:13:22.335Z,16.70
2023-03-21T01:14:23.692Z,16.71
2023-03-21T01:15:22.470Z,16.74
2023-03-21T01:16:22.838Z,16.75
2023-03-21T01:17:22.314Z,16.76
2023-03-21T01:18:22.237Z,16.79
2023-03-21T01:19:32.980Z,16.80
2023-03-21T01:20:22.795Z,16.82
2023-03-21T01:21:22.285Z,16.82
2023-03-21T01:22:22.008Z,16.81
2023-03-21T01:23:22.450Z,16.82
2023-03-21T01:24:22.296Z,16.79
2023-03-21T01:25:23.118Z,16.80
2023-03-21T01:26:22.146Z,16.82
2023-03-21T01:27:22.854Z,16.82
2023-03-21T01:28:22.429Z,16.81
2023-03-21T01:29:22.400Z,16.84
2023-03-21T01:30:24.109Z,16.83
2023-03-21T01:31:21.927Z,16.86
2023-03-21T01:32:22.327Z,16.86
2023-03-21T01:33:21.817Z,16.85
2023-03-21T01:34:22.307Z,16.86
2023-03-21T01:35:21.884Z,16.84
2023-03-21T01:36:23.485Z,16.82
2023-03-21T01:37:22.458Z,16.86
2023-03-21T01:38:22.223Z,16.86
2023-03-21T01:39:21.940Z,16.84
2023-03-21T01:40:22.564Z,16.86
2023-03-21T01:41:26.188Z,16.86
2023-03-21T01:42:22.933Z,16.87
2023-03-21T01:43:22.129Z,16.85
2023-03-21T01:44:22.369Z,16.85
2023-03-21T01:45:22.463Z,16.84
2023-03-21T01:46:22.409Z,16.87
2023-03-21T01:47:22.447Z,16.86
2023-03-21T01:48:21.939Z,16.87
2023-03-21T01:49:22.376Z,16.88
2023-03-21T01:50:22.435Z,16.88
2023-03-21T01:51:22.113Z,16.89
2023-03-21T01:52:35.424Z,16.90
2023-03-21T01:53:22.010Z,16.90
2023-03-21T01:54:22.343Z,16.91
2023-03-21T01:55:22.160Z,16.92
2023-03-21T01:56:22.187Z,16.90
2023-03-21T01:57:22.622Z,16.89
2023-03-21T01:58:21.854Z,16.92
2023-03-21T01:59:22.056Z,16.92
2023-03-21T02:00:23.552Z,16.88
2023-03-21T02:01:22.659Z,16.87
2023-03-21T02:02:22.655Z,16.83
2023-03-21T02:03:34.998Z,16.81
2023-03-21T02:04:21.908Z,16.82
2023-03-21T02:05:22.824Z,16.82
2023-03-21T02:06:21.985Z,16.77
2023-03-21T02:07:22.537Z,16.70
2023-03-21T02:08:25.918Z,16.65
2023-03-21T02:09:21.866Z,16.64
2023-03-21T02:10:22.416Z,16.65
2023-03-21T02:11:22.124Z,16.66
2023-03-21T02:12:22.497Z,16.68
2023-03-21T02:13:21.936Z,16.65
2023-03-21T02:14:29.016Z,16.62
2023-03-21T02:15:23.140Z,16.41
2023-03-21T02:16:22.258Z,16.41
2023-03-21T02:17:22.631Z,16.40
2023-03-21T02:18:22.265Z,16.43
2023-03-21T02:19:29.604Z,16.37
2023-03-21T02:20:22.753Z,16.38
2023-03-21T02:21:22.278Z,16.34
2023-03-21T02:22:21.841Z,16.22
2023-03-21T02:23:22.015Z,16.21
2023-03-21T02:24:21.946Z,16.27
2023-03-21T02:25:22.580Z,16.32
2023-03-21T02:26:24.785Z,16.23
2023-03-21T02:27:22.589Z,16.25
2023-03-21T02:28:22.330Z,16.32
2023-03-21T02:29:22.706Z,16.38
2023-03-21T02:30:30.365Z,16.42
2023-03-21T02:31:22.192Z,16.40
2023-03-21T02:32:34.923Z,16.40
2023-03-21T02:33:22.393Z,16.37
2023-03-21T02:34:22.074Z,16.35
2023-03-21T02:35:22.854Z,16.37
2023-03-21T02:36:22.492Z,16.36
2023-03-21T02:37:28.825Z,16.36
2023-03-21T02:38:21.074Z,16.39
2023-03-21T02:39:22.826Z,16.38
2023-03-21T02:40:22.934Z,16.38
2023-03-21T02:41:22.371Z,16.44
2023-03-21T02:42:22.733Z,16.42
2023-03-21T02:43:23.748Z,16.46
2023-03-21T02:44:22.665Z,16.50
2023-03-21T02:45:22.546Z,16.50
2023-03-21T02:46:24.367Z,16.48
2023-03-21T02:47:22.985Z,16.50
2023-03-21T02:48:29.382Z,16.52
2023-03-21T02:49:22.500Z,16.53
2023-03-21T02:50:22.568Z,16.53
2023-03-21T02:51:22.810Z,16.53
2023-03-21T02:52:37.331Z,16.55
2023-03-21T02:53:22.281Z,16.55
2023-03-21T02:54:32.564Z,16.54
2023-03-21T02:55:21.933Z,16.53
2023-03-21T02:56:22.189Z,16.53
2023-03-21T02:57:25.510Z,16.47
2023-03-21T02:58:22.168Z,16.50
2023-03-21T02:59:23.097Z,16.52
2023-03-21T03:00:23.651Z,16.54
2023-03-21T03:01:21.973Z,16.55
2023-03-21T03:02:22.438Z,16.53
2023-03-21T03:03:33.313Z,16.52
2023-03-21T03:04:22.761Z,16.52
2023-03-21T03:05:22.354Z,16.54
2023-03-21T03:06:22.181Z,16.54
2023-03-21T03:07:21.756Z,16.55
2023-03-21T03:08:26.641Z,16.55
2023-03-21T03:09:21.934Z,16.53
2023-03-21T03:10:23.024Z,16.54
2023-03-21T03:11:21.945Z,16.54
2023-03-21T03:12:22.518Z,16.54
2023-03-21T03:13:21.952Z,16.49
2023-03-21T03:14:41.706Z,16.48
2023-03-21T03:15:22.297Z,16.48
2023-03-21T03:16:22.015Z,16.49
2023-03-21T03:17:22.219Z,16.43
2023-03-21T03:18:22.345Z,16.22
2023-03-21T03:19:22.545Z,16.21
2023-03-21T03:20:22.123Z,16.11
2023-03-21T03:21:21.868Z,16.04
2023-03-21T03:22:21.897Z,16.09
2023-03-21T03:23:21.745Z,16.10
2023-03-21T03:24:22.058Z,16.06
2023-03-21T03:25:35.838Z,16.09
2023-03-21T03:26:21.606Z,16.15
2023-03-21T03:27:22.488Z,16.19
2023-03-21T03:28:23.001Z,16.07
2023-03-21T03:29:22.033Z,16
2023-03-21T03:30:39.292Z,16.02
2023-03-21T03:31:22.494Z,16
2023-03-21T03:32:30.251Z,16.09
2023-03-21T03:33:22.511Z,16.10
2023-03-21T03:34:21.690Z,16.08
2023-03-21T03:35:22.588Z,16.03
2023-03-21T03:36:31.604Z,16.02
2023-03-21T03:37:21.759Z,16.04
2023-03-21T03:38:22.111Z,16.12
2023-03-21T03:39:22.214Z,16.06
2023-03-21T03:40:22.339Z,16.05
2023-03-21T03:41:22.072Z,16.04
2023-03-21T03:42:28.531Z,16.04
2023-03-21T03:43:22.248Z,15.99
2023-03-21T03:44:22.592Z,15.93
2023-03-21T03:45:22.122Z,15.90
2023-03-21T03:46:22.260Z,15.94
2023-03-21T03:47:32.408Z,16.01
2023-03-21T03:48:22.101Z,15.93
2023-03-21T03:49:22.435Z,15.89
2023-03-21T03:50:22.111Z,15.97
2023-03-21T03:51:21.949Z,16.02
2023-03-21T03:52:22.320Z,16.04
2023-03-21T03:53:21.768Z,16.06
2023-03-21T03:54:21.919Z,16.00
2023-03-21T03:55:22.222Z,15.96
2023-03-21T03:56:22.395Z,15.96
2023-03-21T03:57:21.871Z,15.96
2023-03-21T03:58:24.204Z,15.92
2023-03-21T03:59:21.960Z,15.97
2023-03-21T04:00:23.554Z,16
2023-03-21T04:01:22.576Z,16.00
2023-03-21T04:02:22.263Z,16.03
2023-03-21T04:03:21.963Z,16.03
2023-03-21T04:04:22.582Z,16.04
2023-03-21T04:05:22.831Z,16.04
2023-03-21T04:06:22.346Z,16.03
2023-03-21T04:07:22.777Z,16.04
2023-03-21T04:08:22.168Z,16.03
2023-03-21T04:09:28.957Z,15.96
2023-03-21T04:10:22.877Z,15.85
2023-03-21T04:11:22.113Z,15.85
2023-03-21T04:12:22.185Z,15.94
2023-03-21T04:13:22.210Z,15.96
2023-03-21T04:14:22.497Z,15.98
2023-03-21T04:15:22.373Z,16
2023-03-21T04:16:21.982Z,15.94
2023-03-21T04:17:22.085Z,15.89
2023-03-21T04:18:22.467Z,15.90
2023-03-21T04:19:21.930Z,15.83
2023-03-21T04:20:34.158Z,15.77
2023-03-21T04:21:22.069Z,15.81
2023-03-21T04:22:22.548Z,15.76
2023-03-21T04:23:22.202Z,15.70
2023-03-21T04:24:21.909Z,15.77
2023-03-21T04:25:32.672Z,15.80
2023-03-21T04:26:22.559Z,15.82
2023-03-21T04:27:22.332Z,15.87
2023-03-21T04:28:22.140Z,15.90
2023-03-21T04:29:22.573Z,15.92
2023-03-21T04:30:23.014Z,15.90
2023-03-21T04:31:26.018Z,15.93
2023-03-21T04:32:21.830Z,15.86
2023-03-21T04:33:22.185Z,15.71
2023-03-21T04:34:22.361Z,15.72
2023-03-21T04:35:22.418Z,15.82
2023-03-21T04:36:22.564Z,15.85
2023-03-21T04:37:22.734Z,15.88
2023-03-21T04:38:22.135Z,15.86
2023-03-21T04:39:21.723Z,15.85
2023-03-21T04:40:22.379Z,15.80
2023-03-21T04:41:22.361Z,15.72
2023-03-21T04:42:22.749Z,15.75
2023-03-21T04:43:22.304Z,15.80
2023-03-21T04:44:22.173Z,15.85
2023-03-21T04:45:23.027Z,15.81
2023-03-21T04:46:22.285Z,15.84
2023-03-21T04:47:22.321Z,15.77
2023-03-21T04:48:22.132Z,15.76
2023-03-21T04:49:22.605Z,15.78
2023-03-21T04:50:22.208Z,15.76
2023-03-21T04:51:22.109Z,15.76
2023-03-21T04:52:24.319Z,15.78
2023-03-21T04:53:22.114Z,15.78
2023-03-21T04:54:21.834Z,15.81
2023-03-21T04:55:22.520Z,15.84
2023-03-21T04:56:22.426Z,15.79
2023-03-21T04:57:21.984Z,15.77
2023-03-21T04:58:22.232Z,15.75
2023-03-21T04:59:21.935Z,15.72
2023-03-21T05:00:23.632Z,15.77
2023-03-21T05:01:22.421Z,15.81
2023-03-21T05:02:22.097Z,15.86
2023-03-21T05:03:21.777Z,15.87
2023-03-21T05:04:22.277Z,15.82
2023-03-21T05:05:22.023Z,15.75
2023-03-21T05:06:21.819Z,15.76
2023-03-21T05:07:22.082Z,15.75
2023-03-21T05:08:22.318Z,15.73
2023-03-21T05:09:22.410Z,15.73
2023-03-21T05:10:22.488Z,15.74
2023-03-21T05:11:22.606Z,15.76
2023-03-21T05:12:22.300Z,15.71
2023-03-21T05:13:21.978Z,15.75
2023-03-21T05:14:22.317Z,15.75
2023-03-21T05:15:22.258Z,15.69
2023-03-21T05:16:22.178Z,15.67
2023-03-21T05:17:22.104Z,15.72
2023-03-21T05:18:22.285Z,15.61
2023-03-21T05:19:22.240Z,15.65
2023-03-21T05:20:22.804Z,15.68
2023-03-21T05:21:22.581Z,15.68
2023-03-21T05:22:21.940Z,15.70
2023-03-21T05:23:22.030Z,15.60
2023-03-21T05:24:21.796Z,15.60
2023-03-21T05:25:22.789Z,15.65
2023-03-21T05:26:22.126Z,15.68
2023-03-21T05:27:22.049Z,15.71
2023-03-21T05:28:21.737Z,15.67
2023-03-21T05:29:22.111Z,15.68
2023-03-21T05:30:23.072Z,15.73
2023-03-21T05:31:21.779Z,15.70
2023-03-21T05:32:22.439Z,15.67
2023-03-21T05:33:21.869Z,15.73
2023-03-21T05:34:22.336Z,15.77
2023-03-21T05:35:22.580Z,15.76
2023-03-21T05:36:21.988Z,15.81
2023-03-21T05:37:22.793Z,15.86
2023-03-21T05:38:23.131Z,15.87
2023-03-21T05:39:22.456Z,15.90
2023-03-21T05:40:22.707Z,15.89
2023-03-21T05:41:23.191Z,15.94
2023-03-21T05:42:22.266Z,15.93
2023-03-21T05:43:22.230Z,15.91
2023-03-21T05:44:21.761Z,15.90
2023-03-21T05:45:22.205Z,15.89
2023-03-21T05:46:22.004Z,15.85
2023-03-21T05:47:27.296Z,15.84
2023-03-21T05:48:22.401Z,15.87
2023-03-21T05:49:22.092Z,15.89
2023-03-21T05:50:22.909Z,15.89
2023-03-21T05:51:22.056Z,15.90
2023-03-21T05:52:22.398Z,15.92
2023-03-21T05:53:23.210Z,15.89
2023-03-21T05:54:22.053Z,15.91
2023-03-21T05:55:23.121Z,15.89
2023-03-21T05:56:22.276Z,15.87
2023-03-21T05:57:21.729Z,15.83
2023-03-21T05:58:22.476Z,15.90
2023-03-21T05:59:22.330Z,15.83
2023-03-21T06:00:23.048Z,15.88
2023-03-21T06:01:22.676Z,15.89
2023-03-21T06:02:22.458Z,15.91
2023-03-21T06:03:22.757Z,15.93
2023-03-21T06:04:22.111Z,15.85
2023-03-21T06:05:22.271Z,15.82
2023-03-21T06:06:22.776Z,15.86
2023-03-21T06:07:23.001Z,15.89
2023-03-21T06:08:22.497Z,15.94
2023-03-21T06:09:22.488Z,15.97
2023-03-21T06:10:23.495Z,16
2023-03-21T06:11:22.967Z,15.96
2023-03-21T06:12:22.997Z,15.97
2023-03-21T06:13:22.358Z,15.93
2023-03-21T06:14:22.356Z,15.90
2023-03-21T06:15:23.369Z,15.94
2023-03-21T06:16:22.627Z,15.97
2023-03-21T06:17:22.357Z,15.96
2023-03-21T06:18:22.347Z,15.93
2023-03-21T06:19:22.507Z,15.94
2023-03-21T06:20:22.695Z,15.97
2023-03-21T06:21:22.466Z,16.01
2023-03-21T06:22:22.711Z,15.98
2023-03-21T06:23:22.681Z,16
2023-03-21T06:24:22.141Z,15.98
2023-03-21T06:25:22.079Z,15.94
2023-03-21T06:26:22.324Z,15.89
2023-03-21T06:27:21.744Z,15.82
2023-03-21T06:28:22.482Z,15.85
2023-03-21T06:29:22.622Z,15.89
2023-03-21T06:30:22.922Z,15.88
2023-03-21T06:31:22.833Z,15.84
2023-03-21T06:32:22.632Z,15.86
2023-03-21T06:33:44.131Z,15.89
2023-03-21T06:34:22.372Z,15.83
2023-03-21T06:35:22.519Z,15.87
2023-03-21T06:36:21.666Z,15.90
2023-03-21T06:37:22.755Z,15.97
2023-03-21T06:38:21.922Z,15.98
2023-03-21T06:39:22.352Z,16.03
2023-03-21T06:40:22.217Z,16.04
2023-03-21T06:41:22.477Z,16.06
2023-03-21T06:42:22.452Z,16.10
2023-03-21T06:43:22.490Z,16.13
2023-03-21T06:44:21.944Z,16.14
2023-03-21T06:45:22.102Z,16.13
2023-03-21T06:46:23.042Z,16.15
2023-03-21T06:47:22.520Z,16.17
2023-03-21T06:48:22.326Z,16.18
2023-03-21T06:49:22.060Z,16.20
2023-03-21T06:50:22.640Z,16.21
2023-03-21T06:51:22.886Z,16.22
2023-03-21T06:52:22.333Z,16.16
2023-03-21T06:53:22.626Z,16.19
2023-03-21T06:54:22.961Z,16.24
2023-03-21T06:55:22.337Z,16.27
2023-03-21T06:56:22.194Z,16.26
2023-03-21T06:57:22.308Z,16.27
2023-03-21T06:58:22.201Z,16.29
2023-03-21T06:59:22.496Z,16.23
2023-03-21T07:00:23.647Z,16.16
2023-03-21T07:01:22.497Z,16.18
2023-03-21T07:02:22.823Z,16.14
2023-03-21T07:03:22.453Z,16.12
2023-03-21T07:04:22.176Z,16.09
2023-03-21T07:05:22.364Z,16.08
2023-03-21T07:06:21.804Z,16.05
2023-03-21T07:07:22.814Z,15.98
2023-03-21T07:08:21.965Z,15.91
2023-03-21T07:09:22.571Z,15.93
2023-03-21T07:10:22.363Z,15.93
2023-03-21T07:11:22.471Z,15.87
2023-03-21T07:12:22.203Z,15.87
2023-03-21T07:13:22.251Z,15.88
2023-03-21T07:14:22.597Z,15.92
2023-03-21T07:15:23.231Z,15.93
2023-03-21T07:16:22.089Z,15.92
2023-03-21T07:17:22.551Z,15.88
2023-03-21T07:18:22.724Z,15.82
2023-03-21T07:19:22.927Z,15.78
2023-03-21T07:20:23.693Z,15.69
2023-03-21T07:21:22.504Z,15.65
2023-03-21T07:22:22.292Z,15.65
2023-03-21T07:23:22.861Z,15.72
2023-03-21T07:24:25.169Z,15.78
2023-03-21T07:25:23.041Z,15.83
2023-03-21T07:26:22.350Z,15.86
2023-03-21T07:27:22.258Z,15.86
2023-03-21T07:28:22.884Z,15.91
2023-03-21T07:29:22.385Z,15.89
2023-03-21T07:30:22.973Z,15.92
2023-03-21T07:31:22.892Z,15.92
2023-03-21T07:32:23.311Z,15.92
2023-03-21T07:33:23.662Z,15.98
2023-03-21T07:34:23.808Z,16.03
2023-03-21T07:35:22.948Z,16.05
2023-03-21T07:36:23.374Z,16.07
2023-03-21T07:37:23.024Z,16.09
2023-03-21T07:38:23.410Z,16.12
2023-03-21T07:39:23.262Z,16.13
2023-03-21T07:40:22.684Z,16.13
2023-03-21T07:41:23.108Z,16.12
2023-03-21T07:42:22.661Z,16.15
2023-03-21T07:43:23.307Z,16.18
2023-03-21T07:44:22.802Z,16.19
2023-03-21T07:45:23.697Z,16.15
2023-03-21T07:46:23.240Z,16.16
2023-03-21T07:47:22.863Z,16.20
2023-03-21T07:48:22.812Z,16.17
2023-03-21T07:49:22.864Z,16.20
2023-03-21T07:50:23.584Z,16.17
2023-03-21T07:51:23.400Z,16.05
2023-03-21T07:52:23.306Z,16.08
2023-03-21T07:53:23.066Z,16.12
2023-03-21T07:54:22.936Z,16.13
2023-03-21T07:55:23.257Z,16.13
2023-03-21T07:56:22.754Z,16.16
2023-03-21T07:57:23.934Z,16.19
2023-03-21T07:58:23.432Z,16.20
2023-03-21T07:59:22.919Z,16.18
2023-03-21T08:00:24.516Z,16.17
2023-03-21T08:01:23.382Z,16.09
2023-03-21T08:02:22.885Z,16.02
2023-03-21T08:03:24.006Z,16
2023-03-21T08:04:23.394Z,16.03
2023-03-21T08:05:24.236Z,16.02
2023-03-21T08:06:23.274Z,16.01
2023-03-21T08:07:23.765Z,16.06
2023-03-21T08:08:22.947Z,16.12
2023-03-21T08:09:24.107Z,16.12
2023-03-21T08:10:24.159Z,16.12
2023-03-21T08:11:23.318Z,16.03
2023-03-21T08:12:23.663Z,15.92
2023-03-21T08:13:23.729Z,15.97
2023-03-21T08:14:28.763Z,16
2023-03-21T08:15:23.487Z,15.98
2023-03-21T08:16:24.012Z,15.96
2023-03-21T08:17:23.962Z,15.90
2023-03-21T08:18:28.940Z,15.93
2023-03-21T08:19:24.518Z,16.01
2023-03-21T08:20:24.436Z,16.07
2023-03-21T08:21:23.870Z,16.02
2023-03-21T08:22:23.644Z,16.06
2023-03-21T08:23:23.103Z,16.09
2023-03-21T08:24:23.274Z,16.10
2023-03-21T08:25:23.344Z,16.13
2023-03-21T08:26:23.156Z,16.11
2023-03-21T08:27:23.520Z,16.14
2023-03-21T08:28:23.493Z,16.18
2023-03-21T08:29:23.795Z,16.23
2023-03-21T08:30:31.941Z,16.25
2023-03-21T08:31:23.710Z,16.21
2023-03-21T08:32:23.483Z,16.23
2023-03-21T08:33:23.441Z,16.26
2023-03-21T08:34:23.415Z,16.19
2023-03-21T08:35:23.334Z,16.21
2023-03-21T08:36:24.427Z,16.28
2023-03-21T08:37:23.745Z,16.21
2023-03-21T08:38:23.685Z,16.16
2023-03-21T08:39:24.366Z,16.22
2023-03-21T08:40:23.808Z,16.26
2023-03-21T08:41:23.174Z,16.29
2023-03-21T08:42:23.756Z,16.33
2023-03-21T08:43:23.810Z,16.23
2023-03-21T08:44:23.393Z,16.25
2023-03-21T08:45:23.578Z,16.29
2023-03-21T08:46:23.313Z,16.28
2023-03-21T08:47:22.595Z,16.22
2023-03-21T08:48:22.588Z,16.19
2023-03-21T08:49:23.912Z,16.18
2023-03-21T08:50:23.089Z,16.16
2023-03-21T08:51:22.903Z,16.17
2023-03-21T08:52:23.094Z,16.21
2023-03-21T08:53:23.686Z,16.27
2023-03-21T08:54:22.985Z,16.29
2023-03-21T08:55:23.566Z,16.29
2023-03-21T08:56:23.891Z,16.33
2023-03-21T08:57:23.123Z,16.33
2023-03-21T08:58:23.312Z,16.41
2023-03-21T08:59:23.532Z,16.44
2023-03-21T09:00:24.757Z,16.39
2023-03-21T09:01:23.706Z,16.36
2023-03-21T09:02:22.820Z,16.41
2023-03-21T09:03:23.147Z,16.36
2023-03-21T09:04:23.222Z,16.36
2023-03-21T09:05:23.200Z,16.41
2023-03-21T09:06:22.905Z,16.45
2023-03-21T09:07:23.178Z,16.48
2023-03-21T09:08:23.263Z,16.47
2023-03-21T09:09:23.420Z,16.41
2023-03-21T09:10:23.922Z,16.39
2023-03-21T09:11:22.858Z,16.40
2023-03-21T09:12:23.249Z,16.44
2023-03-21T09:13:23.298Z,16.47
2023-03-21T09:15:28.037Z,16.47
2023-03-21T09:16:23.625Z,16.46
2023-03-21T09:17:23.284Z,16.35
2023-03-21T09:18:23.218Z,16.40
2023-03-21T09:19:23.863Z,16.42
2023-03-21T09:20:23.450Z,16.29
2023-03-21T09:21:23.409Z,16.30
2023-03-21T09:22:23.845Z,16.31
2023-03-21T09:23:23.957Z,16.36
2023-03-21T09:24:23.890Z,16.40
2023-03-21T09:25:23.548Z,16.32
2023-03-21T09:26:23.022Z,16.32
2023-03-21T09:27:23.572Z,16.28
2023-03-21T09:28:23.485Z,16.22
2023-03-21T09:29:23.306Z,16.26
2023-03-21T09:30:25.985Z,16.32
2023-03-21T09:31:23.655Z,16.29
2023-03-21T09:32:23.013Z,16.23
2023-03-21T09:33:23.058Z,16.18
2023-03-21T09:34:23.195Z,16.17
2023-03-21T09:35:23.154Z,16.24
2023-03-21T09:36:23.157Z,16.20
2023-03-21T09:37:23.269Z,16.13
2023-03-21T09:38:23.657Z,15.99
2023-03-21T09:39:22.718Z,16.04
2023-03-21T09:40:23.049Z,16.11
2023-03-21T09:41:23.815Z,16.03
2023-03-21T09:42:22.810Z,15.95
2023-03-21T09:43:23.428Z,15.98
2023-03-21T09:44:23.504Z,15.97
2023-03-21T09:45:23.120Z,15.93
2023-03-21T09:46:24.092Z,15.93
2023-03-21T09:47:23.226Z,16.01
2023-03-21T09:48:23.575Z,16.11
2023-03-21T09:49:23.603Z,16.15
2023-03-21T09:50:24.118Z,16.10
2023-03-21T09:51:23.378Z,16.16
2023-03-21T09:52:23.719Z,16.20
2023-03-21T09:53:23.269Z,16.23
2023-03-21T09:54:23.425Z,16.23
2023-03-21T09:55:23.428Z,16.20
2023-03-21T09:56:23.552Z,16.25
2023-03-21T09:57:23.043Z,16.28
2023-03-21T09:58:23.220Z,16.20
2023-03-21T09:59:23.893Z,16.13
2023-03-21T10:00:25.075Z,16.15
2023-03-21T10:01:24.179Z,16.18
2023-03-21T10:02:23.777Z,16.18
2023-03-21T10:03:23.945Z,16.18
2023-03-21T10:04:23.557Z,16.18
2023-03-21T10:05:23.795Z,16.25
2023-03-21T10:06:23.964Z,16.37
2023-03-21T10:07:23.515Z,16.43
2023-03-21T10:08:23.307Z,16.45
2023-03-21T10:09:24.073Z,16.40
2023-03-21T10:10:24.240Z,16.30
2023-03-21T10:11:23.820Z,16.35
2023-03-21T10:12:23.749Z,16.36
2023-03-21T10:13:23.625Z,16.43
2023-03-21T10:14:24.156Z,16.48
2023-03-21T10:15:24.282Z,16.47
2023-03-21T10:16:24.608Z,16.47
2023-03-21T10:17:24.867Z,16.58
2023-03-21T10:18:24.092Z,16.56
2023-03-21T10:19:23.858Z,16.57
2023-03-21T10:20:23.752Z,16.51
2023-03-21T10:21:47.447Z,16.54
2023-03-21T10:22:32.120Z,16.64
2023-03-21T10:23:22.813Z,16.62
2023-03-21T10:24:23.521Z,16.69
2023-03-21T10:25:23.951Z,16.55
2023-03-21T10:26:23.627Z,16.52
2023-03-21T10:27:23.802Z,16.51
2023-03-21T10:28:23.039Z,16.54
2023-03-21T10:29:23.756Z,16.60
2023-03-21T10:30:23.723Z,16.61
2023-03-21T10:31:22.457Z,16.69
2023-03-21T10:32:23.244Z,16.77
2023-03-21T10:33:22.780Z,16.78
2023-03-21T10:34:23.322Z,16.78
2023-03-21T10:35:22.797Z,16.79
2023-03-21T10:36:23.076Z,16.84
2023-03-21T10:37:23.189Z,16.82
2023-03-21T10:38:23.096Z,16.87
2023-03-21T10:39:22.998Z,16.79
2023-03-21T10:40:23.739Z,16.79
2023-03-21T10:41:23.193Z,16.80
2023-03-21T10:42:23.175Z,16.82
2023-03-21T10:43:22.974Z,16.99
2023-03-21T10:44:23.474Z,17.04
2023-03-21T10:45:23.528Z,17.04
2023-03-21T10:46:23.997Z,17.10
2023-03-21T10:47:23.066Z,17.21
2023-03-21T10:48:23.428Z,17.22
2023-03-21T10:49:23.115Z,17.20
2023-03-21T10:50:23.750Z,17.22
2023-03-21T10:51:23.693Z,17.32
2023-03-21T10:52:23.158Z,17.36
2023-03-21T10:53:23.715Z,17.38
2023-03-21T10:54:23.820Z,17.44
2023-03-21T10:55:24.624Z,17.50
2023-03-21T10:56:26.602Z,17.52
2023-03-21T10:57:25.219Z,17.54
2023-03-21T10:58:24.336Z,17.49
2023-03-21T10:59:23.973Z,17.5
2023-03-21T11:00:24.624Z,17.55
2023-03-21T11:01:24.144Z,17.51
2023-03-21T11:02:23.952Z,17.53
2023-03-21T11:03:38.617Z,17.53
2023-03-21T11:04:23.123Z,17.50
2023-03-21T11:05:38.112Z,17.54
2023-03-21T11:06:23.733Z,17.56
2023-03-21T11:07:23.675Z,17.53
2023-03-21T11:08:23.585Z,17.58
2023-03-21T11:09:23.536Z,17.65
2023-03-21T11:10:28.833Z,17.70
2023-03-21T11:11:23.636Z,17.75
2023-03-21T11:12:23.155Z,17.71
2023-03-21T11:13:23.399Z,17.78
2023-03-21T11:14:23.647Z,17.76
2023-03-21T11:15:24.403Z,17.77
2023-03-21T11:16:23.652Z,17.85
2023-03-21T11:17:23.369Z,17.90
2023-03-21T11:18:23.333Z,17.97
2023-03-21T11:19:23.777Z,17.97
2023-03-21T11:20:23.834Z,17.95
2023-03-21T11:21:23.769Z,17.87
2023-03-21T11:22:23.331Z,17.96
2023-03-21T11:23:23.450Z,18.04
2023-03-21T11:24:23.988Z,18.11
2023-03-21T11:25:24.109Z,18.18
2023-03-21T11:26:23.415Z,18.18
2023-03-21T11:27:23.472Z,18.15
2023-03-21T11:28:23.150Z,18.20
2023-03-21T11:29:23.824Z,18.25
2023-03-21T11:30:23.610Z,18.17
2023-03-21T11:32:26.417Z,18.25
2023-03-21T11:33:23.133Z,18.31
2023-03-21T11:34:23.516Z,18.32
2023-03-21T11:35:23.288Z,18.23
2023-03-21T11:36:22.688Z,18.30
2023-03-21T11:37:23.479Z,18.38
2023-03-21T11:38:23.286Z,18.44
2023-03-21T11:39:23.758Z,18.45
2023-03-21T11:40:23.887Z,18.48
2023-03-21T11:41:23.275Z,18.46
2023-03-21T11:42:23.402Z,18.46
2023-03-21T11:43:23.513Z,18.45
2023-03-21T11:44:23.284Z,18.45
2023-03-21T11:45:23.723Z,18.5
2023-03-21T11:46:23.319Z,18.52
2023-03-21T11:47:23.277Z,18.45
2023-03-21T11:48:23.170Z,18.52
2023-03-21T11:49:23.282Z,18.59
2023-03-21T11:50:23.395Z,18.62
2023-03-21T11:51:23.553Z,18.65
2023-03-21T11:52:23.217Z,18.64
2023-03-21T11:53:23.275Z,18.67
2023-03-21T11:54:23.342Z,18.71
2023-03-21T11:55:24.141Z,18.70
2023-03-21T11:56:22.785Z,18.64
2023-03-21T11:57:23.314Z,18.62
2023-03-21T11:58:23.177Z,18.64
2023-03-21T11:59:23.844Z,18.61
2023-03-21T12:00:24.548Z,18.62
2023-03-21T12:01:23.640Z,18.60
2023-03-21T12:02:22.751Z,18.59
2023-03-21T12:03:23.886Z,18.53
2023-03-21T12:04:23.324Z,18.54
2023-03-21T12:05:23.175Z,18.5
2023-03-21T12:06:22.625Z,18.44
2023-03-21T12:07:23.586Z,18.46
2023-03-21T12:08:23.240Z,18.38
2023-03-21T12:09:23.066Z,18.43
2023-03-21T12:10:22.470Z,18.47
2023-03-21T12:11:23.118Z,18.53
2023-03-21T12:12:30.030Z,18.53
2023-03-21T12:13:22.413Z,18.49
2023-03-21T12:14:23.172Z,18.36
2023-03-21T12:15:23.189Z,18.33
2023-03-21T12:16:23.067Z,18.29
2023-03-21T12:17:23.265Z,18.31
2023-03-21T12:18:23.001Z,18.30
2023-03-21T12:19:23.052Z,18.30
2023-03-21T12:20:22.615Z,18.34
2023-03-21T12:21:23.457Z,18.31
2023-03-21T12:22:23.022Z,18.29
2023-03-21T12:23:22.974Z,18.34
2023-03-21T12:24:23.614Z,18.34
2023-03-21T12:25:23.194Z,18.37
2023-03-21T12:26:23.131Z,18.43
2023-03-21T12:27:23.666Z,18.47
2023-03-21T12:28:31.945Z,18.38
2023-03-21T12:29:23.956Z,18.39
2023-03-21T12:30:23.931Z,18.45
2023-03-21T12:31:23.843Z,18.48
2023-03-21T12:32:23.066Z,18.46
2023-03-21T12:33:23.246Z,18.44
2023-03-21T12:34:22.394Z,18.52
2023-03-21T12:35:22.441Z,18.63
2023-03-21T12:36:22.928Z,18.70
2023-03-21T12:37:22.760Z,18.80
2023-03-21T12:38:20.843Z,18.88
2023-03-21T12:39:23.724Z,18.95
2023-03-21T12:40:23.740Z,19.04
2023-03-21T12:41:23.230Z,19.13
2023-03-21T12:42:23.131Z,19.15
2023-03-21T12:43:23.213Z,19.15
2023-03-21T12:44:22.986Z,19.18
2023-03-21T12:45:23.831Z,19.23
2023-03-21T12:46:23.310Z,19.25
2023-03-21T12:47:23.431Z,19.25
2023-03-21T12:48:23.058Z,19.27
2023-03-21T12:49:23.600Z,19.36
2023-03-21T12:50:23.496Z,19.38
2023-03-21T12:51:23.614Z,19.42
2023-03-21T12:52:23.072Z,19.5
2023-03-21T12:53:23.285Z,19.5
2023-03-21T12:54:24.204Z,19.53
2023-03-21T12:55:24.022Z,19.56
2023-03-21T12:56:23.688Z,19.56